PWSweather.com
Personal Weather Stations
Station Observations
CARNOUSTIE
Pambride, CarnoustieGB DD7 6DY

PambrideCarnoustieGB DD7 6DY

Lat: 56.50889, Lon: -2.7051

Elevation: 105

Station Type: Oregon Scientific WMR200

www.carnoustieweather.co.uk

High Low Average
Temperature 61.2°F16.2°C 46.8°F8.2°C 54.8°F12.7°C
Dew Point 54.9°F12.7°C 41.9°F5.5°C 49.5°F9.7°C
Winds 10.4 mph 16.7 kmh Calm Calm 5.0 mph SSE8.0 kmh SSE
Wind Gusts 15.0 mph24.1 kmh -- 7.0 mph11.3 kmh
Humidity 86% 73% 82%
Pressure 29.74 in1007.1 mb 29.44 in997.0 mb -
Precipitation 0.23 in5.8 mm - -
Hour Temp Dew Point Humidity Winds Wind Gusts Pressure Precip Precip Rate Daily Precip Total
12:00 AM 53.6°F12.0°C 48.6°F9.2°C 83% 5.8 mph SE9.3 kmh SE 9.2 mph14.8 kmh 29.74 in1007.1 mb - 0.00 in0.0 mm 0.00 in0.0 mm
12:10 AM 53.5°F11.9°C 48.4°F9.1°C 83% 4.6 mph E7.4 kmh E 6.9 mph11.1 kmh 29.74 in1007.1 mb - 0.00 in0.0 mm 0.00 in0.0 mm
12:15 AM 53.4°F11.9°C 48.4°F9.1°C 83% 4.6 mph ESE7.4 kmh ESE 5.8 mph9.3 kmh 29.74 in1007.1 mb - 0.00 in0.0 mm 0.00 in0.0 mm
12:20 AM 53.6°F12.0°C 48.6°F9.2°C 83% 4.6 mph ENE7.4 kmh ENE 8.1 mph13.0 kmh 29.74 in1007.1 mb - 0.00 in0.0 mm 0.00 in0.0 mm
12:25 AM 53.9°F12.2°C 48.8°F9.3°C 83% 4.6 mph ESE7.4 kmh ESE 8.1 mph13.0 kmh 29.74 in1007.1 mb - 0.00 in0.0 mm 0.00 in0.0 mm
12:30 AM 54.0°F12.2°C 49.0°F9.4°C 83% 3.5 mph SE5.6 kmh SE 3.5 mph5.6 kmh 29.74 in1007.1 mb - 0.00 in0.0 mm 0.00 in0.0 mm
12:35 AM 54.3°F12.4°C 49.3°F9.6°C 83% 5.8 mph E9.3 kmh E 6.9 mph11.1 kmh 29.74 in1007.1 mb - 0.00 in0.0 mm 0.00 in0.0 mm
12:40 AM 54.5°F12.5°C 49.8°F9.9°C 84% 4.6 mph NE7.4 kmh NE 6.9 mph11.1 kmh 29.74 in1007.1 mb - 0.00 in0.0 mm 0.00 in0.0 mm
12:45 AM 54.7°F12.6°C 49.9°F9.9°C 84% 5.8 mph E9.3 kmh E 9.2 mph14.8 kmh 29.74 in1007.1 mb - 0.00 in0.0 mm 0.00 in0.0 mm
12:50 AM 54.7°F12.6°C 49.9°F9.9°C 84% 4.6 mph E7.4 kmh E 6.9 mph11.1 kmh 29.74 in1007.1 mb - 0.00 in0.0 mm 0.00 in0.0 mm
12:55 AM 54.9°F12.7°C 50.1°F10.1°C 84% 4.6 mph ENE7.4 kmh ENE 5.8 mph9.3 kmh 29.71 in1006.1 mb - 0.00 in0.0 mm 0.00 in0.0 mm
01:00 AM 54.9°F12.7°C 50.1°F10.1°C 84% 4.6 mph ENE7.4 kmh ENE 5.8 mph9.3 kmh 29.71 in1006.1 mb - 0.00 in0.0 mm 0.00 in0.0 mm
01:10 AM 55.0°F12.8°C 50.3°F10.2°C 84% 5.8 mph NNE9.3 kmh NNE 5.8 mph9.3 kmh 29.71 in1006.1 mb - 0.00 in0.0 mm 0.00 in0.0 mm
01:15 AM 55.0°F12.8°C 50.3°F10.2°C 84% 4.6 mph NE7.4 kmh NE 8.1 mph13.0 kmh 29.71 in1006.1 mb - 0.00 in0.0 mm 0.00 in0.0 mm
01:20 AM 55.0°F12.8°C 50.3°F10.2°C 84% 3.5 mph ENE5.6 kmh ENE 5.8 mph9.3 kmh 29.71 in1006.1 mb - 0.00 in0.0 mm 0.00 in0.0 mm
01:25 AM 55.0°F12.8°C 50.0°F10.0°C 83% 3.5 mph WNW5.6 kmh WNW 4.6 mph7.4 kmh 29.71 in1006.1 mb - 0.00 in0.0 mm 0.00 in0.0 mm
01:30 AM 55.2°F12.9°C 50.1°F10.1°C 83% 4.6 mph NE7.4 kmh NE 5.8 mph9.3 kmh 29.71 in1006.1 mb - 0.00 in0.0 mm 0.00 in0.0 mm
01:35 AM 55.2°F12.9°C 50.1°F10.1°C 83% 4.6 mph ENE7.4 kmh ENE 3.5 mph5.6 kmh 29.71 in1006.1 mb - 0.00 in0.0 mm 0.00 in0.0 mm
01:40 AM 55.2°F12.9°C 50.1°F10.1°C 83% 5.8 mph NE9.3 kmh NE 9.2 mph14.8 kmh 29.68 in1005.1 mb - 0.00 in0.0 mm 0.00 in0.0 mm
01:45 AM 55.2°F12.9°C 50.1°F10.1°C 83% 6.9 mph NNE11.1 kmh NNE 8.1 mph13.0 kmh 29.68 in1005.1 mb - 0.00 in0.0 mm 0.00 in0.0 mm
01:50 AM 55.2°F12.9°C 50.1°F10.1°C 83% 5.8 mph NNE9.3 kmh NNE 9.2 mph14.8 kmh 29.68 in1005.1 mb - 0.00 in0.0 mm 0.00 in0.0 mm
01:55 AM 55.2°F12.9°C 50.1°F10.1°C 83% 5.8 mph NE9.3 kmh NE 6.9 mph11.1 kmh 29.68 in1005.1 mb - 0.00 in0.0 mm 0.00 in0.0 mm
02:00 AM 55.0°F12.8°C 50.0°F10.0°C 83% 9.2 mph NE14.8 kmh NE 10.4 mph16.7 kmh 29.68 in1005.1 mb - 0.00 in0.0 mm 0.00 in0.0 mm
02:10 AM 55.0°F12.8°C 50.0°F10.0°C 83% 5.8 mph NE9.3 kmh NE 6.9 mph11.1 kmh 29.71 in1006.1 mb - 0.00 in0.0 mm 0.00 in0.0 mm
02:15 AM 55.0°F12.8°C 50.0°F10.0°C 83% 6.9 mph NE11.1 kmh NE 8.1 mph13.0 kmh 29.71 in1006.1 mb - 0.00 in0.0 mm 0.00 in0.0 mm
02:20 AM 55.0°F12.8°C 50.0°F10.0°C 83% 5.8 mph NE9.3 kmh NE 8.1 mph13.0 kmh 29.71 in1006.1 mb - 0.00 in0.0 mm 0.00 in0.0 mm
07:25 AM 55.0°F12.8°C 50.0°F10.0°C 83% 5.8 mph ENE9.3 kmh ENE 6.9 mph11.1 kmh 29.71 in1006.1 mb - 0.00 in0.0 mm 0.00 in0.0 mm
07:30 AM 54.5°F12.5°C 50.1°F10.1°C 85% 3.5 mph SSE5.6 kmh SSE 5.8 mph9.3 kmh 29.56 in1001.0 mb - 0.00 in0.0 mm 0.00 in0.0 mm
07:35 AM 54.5°F12.5°C 50.1°F10.1°C 85% 3.5 mph ESE5.6 kmh ESE 4.6 mph7.4 kmh 29.56 in1001.0 mb - 0.00 in0.0 mm 0.00 in0.0 mm
07:40 AM 54.7°F12.6°C 50.3°F10.2°C 85% 4.6 mph SSE7.4 kmh SSE 4.6 mph7.4 kmh 29.56 in1001.0 mb - 0.00 in0.0 mm 0.00 in0.0 mm
07:45 AM 54.7°F12.6°C 50.3°F10.2°C 85% 4.6 mph SE7.4 kmh SE 9.2 mph14.8 kmh 29.56 in1001.0 mb - 0.00 in0.0 mm 0.00 in0.0 mm
07:50 AM 54.7°F12.6°C 50.3°F10.2°C 85% 6.9 mph ENE11.1 kmh ENE 9.2 mph14.8 kmh 29.56 in1001.0 mb - 0.00 in0.0 mm 0.00 in0.0 mm
07:55 AM 54.7°F12.6°C 50.3°F10.2°C 85% 4.6 mph SSE7.4 kmh SSE 8.1 mph13.0 kmh 29.56 in1001.0 mb - 0.00 in0.0 mm 0.00 in0.0 mm
08:00 AM 54.7°F12.6°C 50.3°F10.2°C 85% 3.5 mph S5.6 kmh S 6.9 mph11.1 kmh 29.56 in1001.0 mb - 0.00 in0.0 mm 0.00 in0.0 mm
08:10 AM 54.7°F12.6°C 50.3°F10.2°C 85% 2.3 mph SW3.7 kmh SW 4.6 mph7.4 kmh 29.56 in1001.0 mb - 0.00 in0.0 mm 0.00 in0.0 mm
08:15 AM 54.8°F12.7°C 50.3°F10.2°C 85% 3.5 mph SSE5.6 kmh SSE 4.6 mph7.4 kmh 29.56 in1001.0 mb - 0.00 in0.0 mm 0.00 in0.0 mm
08:20 AM 54.9°F12.7°C 50.4°F10.2°C 85% 6.9 mph SSE11.1 kmh SSE 9.2 mph14.8 kmh 29.56 in1001.0 mb - 0.00 in0.0 mm 0.00 in0.0 mm
08:25 AM 54.9°F12.7°C 50.4°F10.2°C 85% 4.6 mph SE7.4 kmh SE 9.2 mph14.8 kmh 29.53 in1000.0 mb - 0.00 in0.0 mm 0.00 in0.0 mm
08:30 AM 54.7°F12.6°C 50.3°F10.2°C 85% 5.8 mph SSE9.3 kmh SSE 9.2 mph14.8 kmh 29.53 in1000.0 mb - 0.00 in0.0 mm 0.00 in0.0 mm
08:35 AM 54.5°F12.5°C 50.1°F10.1°C 85% 9.2 mph SSE14.8 kmh SSE 9.2 mph14.8 kmh 29.53 in1000.0 mb - 0.00 in0.0 mm 0.00 in0.0 mm
08:40 AM 54.5°F12.5°C 50.1°F10.1°C 85% 5.8 mph SE9.3 kmh SE 10.4 mph16.7 kmh 29.53 in1000.0 mb - 0.00 in0.0 mm 0.00 in0.0 mm
08:45 AM 54.5°F12.5°C 50.1°F10.1°C 85% 4.6 mph ESE7.4 kmh ESE 6.9 mph11.1 kmh 29.53 in1000.0 mb - 0.00 in0.0 mm 0.00 in0.0 mm
08:50 AM 54.3°F12.4°C 49.9°F9.9°C 85% 6.9 mph SE11.1 kmh SE 9.2 mph14.8 kmh 29.53 in1000.0 mb - 0.00 in0.0 mm 0.00 in0.0 mm
08:55 AM 54.3°F12.4°C 49.9°F9.9°C 85% 6.9 mph SE11.1 kmh SE 6.9 mph11.1 kmh 29.50 in999.0 mb - 0.00 in0.0 mm 0.00 in0.0 mm
09:00 AM 54.3°F12.4°C 49.9°F9.9°C 85% 5.8 mph S9.3 kmh S 8.1 mph13.0 kmh 29.50 in999.0 mb - 0.00 in0.0 mm 0.00 in0.0 mm
09:10 AM 54.5°F12.5°C 50.1°F10.1°C 85% 2.3 mph SSW3.7 kmh SSW 3.5 mph5.6 kmh 29.50 in999.0 mb - 0.00 in0.0 mm 0.00 in0.0 mm
09:15 AM 54.5°F12.5°C 50.1°F10.1°C 85% 3.5 mph W5.6 kmh W 4.6 mph7.4 kmh 29.50 in999.0 mb - 0.00 in0.0 mm 0.00 in0.0 mm
09:20 AM 54.5°F12.5°C 50.1°F10.1°C 85% 3.5 mph NW5.6 kmh NW 3.5 mph5.6 kmh 29.50 in999.0 mb - 0.00 in0.0 mm 0.00 in0.0 mm
09:25 AM 54.5°F12.5°C 50.1°F10.1°C 85% 1.2 mph WNW1.9 kmh WNW 2.3 mph3.7 kmh 29.47 in998.0 mb - 0.00 in0.0 mm 0.00 in0.0 mm
09:30 AM 54.7°F12.6°C 50.3°F10.2°C 85% 3.5 mph E5.6 kmh E 4.6 mph7.4 kmh 29.47 in998.0 mb - 0.00 in0.0 mm 0.00 in0.0 mm
09:35 AM 54.7°F12.6°C 50.3°F10.2°C 85% 4.6 mph SE7.4 kmh SE 4.6 mph7.4 kmh 29.47 in998.0 mb - 0.00 in0.0 mm 0.00 in0.0 mm
09:40 AM 54.9°F12.7°C 50.4°F10.2°C 85% 5.8 mph SE9.3 kmh SE 6.9 mph11.1 kmh 29.50 in999.0 mb - 0.00 in0.0 mm 0.00 in0.0 mm
09:45 AM 55.0°F12.8°C 50.6°F10.3°C 85% 5.8 mph SE9.3 kmh SE 6.9 mph11.1 kmh 29.50 in999.0 mb - 0.00 in0.0 mm 0.00 in0.0 mm
09:50 AM 55.2°F12.9°C 50.8°F10.4°C 85% 6.9 mph SE11.1 kmh SE 9.2 mph14.8 kmh 29.50 in999.0 mb - 0.00 in0.0 mm 0.00 in0.0 mm
09:55 AM 55.2°F12.9°C 50.8°F10.4°C 85% 5.8 mph SE9.3 kmh SE 9.2 mph14.8 kmh 29.50 in999.0 mb - 0.00 in0.0 mm 0.00 in0.0 mm
10:00 AM 55.2°F12.9°C 50.8°F10.4°C 85% 6.9 mph SSE11.1 kmh SSE 9.2 mph14.8 kmh 29.50 in999.0 mb - 0.00 in0.0 mm 0.00 in0.0 mm
10:10 AM 55.6°F13.1°C 51.1°F10.6°C 85% 8.1 mph S13.0 kmh S 10.4 mph16.7 kmh 29.50 in999.0 mb - 0.00 in0.0 mm 0.00 in0.0 mm
10:15 AM 55.6°F13.1°C 51.1°F10.6°C 85% 6.9 mph SE11.1 kmh SE 8.1 mph13.0 kmh 29.50 in999.0 mb - 0.00 in0.0 mm 0.00 in0.0 mm
10:20 AM 55.4°F13.0°C 51.0°F10.6°C 85% 8.1 mph SE13.0 kmh SE 13.8 mph22.2 kmh 29.50 in999.0 mb - 0.00 in0.0 mm 0.00 in0.0 mm
10:25 AM 55.4°F13.0°C 51.0°F10.6°C 85% 5.8 mph SE9.3 kmh SE 8.1 mph13.0 kmh 29.50 in999.0 mb - 0.00 in0.0 mm 0.00 in0.0 mm
10:30 AM 55.4°F13.0°C 51.0°F10.6°C 85% 8.1 mph SSE13.0 kmh SSE 10.4 mph16.7 kmh 29.50 in999.0 mb - 0.00 in0.0 mm 0.00 in0.0 mm
10:35 AM 55.2°F12.9°C 50.8°F10.4°C 85% 4.6 mph SE7.4 kmh SE 8.1 mph13.0 kmh 29.50 in999.0 mb - 0.00 in0.0 mm 0.00 in0.0 mm
10:40 AM 55.2°F12.9°C 50.8°F10.4°C 85% 5.8 mph SSE9.3 kmh SSE 9.2 mph14.8 kmh 29.50 in999.0 mb - 0.00 in0.0 mm 0.00 in0.0 mm
10:45 AM 55.0°F12.8°C 50.6°F10.3°C 85% 6.9 mph SE11.1 kmh SE 9.2 mph14.8 kmh 29.50 in999.0 mb - 0.00 in0.0 mm 0.00 in0.0 mm
10:50 AM 55.0°F12.8°C 50.6°F10.3°C 85% 6.9 mph SE11.1 kmh SE 9.2 mph14.8 kmh 29.50 in999.0 mb - 0.00 in0.0 mm 0.00 in0.0 mm
10:55 AM 54.7°F12.6°C 50.3°F10.2°C 85% 8.1 mph SSE13.0 kmh SSE 11.5 mph18.5 kmh 29.50 in999.0 mb - 0.00 in0.0 mm 0.00 in0.0 mm
11:00 AM 54.7°F12.6°C 50.3°F10.2°C 85% 10.4 mph SE16.7 kmh SE 13.8 mph22.2 kmh 29.50 in999.0 mb - 0.00 in0.0 mm 0.00 in0.0 mm
11:10 AM 54.5°F12.5°C 50.1°F10.1°C 85% 6.9 mph SE11.1 kmh SE 10.4 mph16.7 kmh 29.50 in999.0 mb - 0.00 in0.0 mm 0.00 in0.0 mm
11:15 AM 54.5°F12.5°C 50.1°F10.1°C 85% 8.1 mph ESE13.0 kmh ESE 13.8 mph22.2 kmh 29.50 in999.0 mb - 0.02 in0.5 mm 0.02 in0.5 mm
11:25 AM 54.5°F12.5°C 50.1°F10.1°C 85% 9.2 mph SE14.8 kmh SE 11.5 mph18.5 kmh 29.47 in998.0 mb - 0.02 in0.5 mm 0.02 in0.5 mm
11:30 AM 54.5°F12.5°C 50.1°F10.1°C 85% 5.8 mph SE9.3 kmh SE 6.9 mph11.1 kmh 29.47 in998.0 mb - 0.02 in0.5 mm 0.02 in0.5 mm
11:35 AM 54.5°F12.5°C 50.1°F10.1°C 85% 8.1 mph SSE13.0 kmh SSE 9.2 mph14.8 kmh 29.47 in998.0 mb - 0.02 in0.5 mm 0.02 in0.5 mm
11:40 AM 54.5°F12.5°C 50.1°F10.1°C 85% 8.1 mph SE13.0 kmh SE 13.8 mph22.2 kmh 29.47 in998.0 mb - 0.02 in0.5 mm 0.02 in0.5 mm
11:45 AM 54.5°F12.5°C 50.4°F10.2°C 86% 8.1 mph SE13.0 kmh SE 12.7 mph20.4 kmh 29.47 in998.0 mb - 0.02 in0.5 mm 0.02 in0.5 mm
11:50 AM 54.5°F12.5°C 50.4°F10.2°C 86% 6.9 mph SE11.1 kmh SE 10.4 mph16.7 kmh 29.47 in998.0 mb - 0.02 in0.5 mm 0.02 in0.5 mm
11:55 AM 54.7°F12.6°C 50.6°F10.3°C 86% 5.8 mph SE9.3 kmh SE 10.4 mph16.7 kmh 29.47 in998.0 mb - 0.02 in0.5 mm 0.02 in0.5 mm
12:00 PM 54.7°F12.6°C 50.6°F10.3°C 86% 8.1 mph SSE13.0 kmh SSE 9.2 mph14.8 kmh 29.47 in998.0 mb - 0.02 in0.5 mm 0.02 in0.5 mm
12:10 PM 54.9°F12.7°C 50.8°F10.4°C 86% 8.1 mph SSW13.0 kmh SSW 9.2 mph14.8 kmh 29.47 in998.0 mb - 0.02 in0.5 mm 0.02 in0.5 mm
12:15 PM 54.9°F12.7°C 50.8°F10.4°C 86% 5.8 mph SE9.3 kmh SE 6.9 mph11.1 kmh 29.47 in998.0 mb - 0.02 in0.5 mm 0.03 in0.8 mm
12:20 PM 55.0°F12.8°C 50.9°F10.5°C 86% 8.1 mph SSE13.0 kmh SSE 12.7 mph20.4 kmh 29.47 in998.0 mb - 0.02 in0.5 mm 0.03 in0.8 mm
12:25 PM 55.0°F12.8°C 50.9°F10.5°C 86% 5.8 mph SE9.3 kmh SE 8.1 mph13.0 kmh 29.47 in998.0 mb - 0.02 in0.5 mm 0.03 in0.8 mm
12:30 PM 55.0°F12.8°C 50.9°F10.5°C 86% 6.9 mph SSE11.1 kmh SSE 9.2 mph14.8 kmh 29.47 in998.0 mb - 0.02 in0.5 mm 0.03 in0.8 mm
12:35 PM 55.1°F12.8°C 50.9°F10.5°C 86% 4.6 mph S7.4 kmh S 8.1 mph13.0 kmh 29.47 in998.0 mb - 0.02 in0.5 mm 0.03 in0.8 mm
12:40 PM 55.2°F12.9°C 51.1°F10.6°C 86% 8.1 mph SE13.0 kmh SE 10.4 mph16.7 kmh 29.47 in998.0 mb - 0.02 in0.5 mm 0.03 in0.8 mm
12:45 PM 55.2°F12.9°C 51.1°F10.6°C 86% 6.9 mph S11.1 kmh S 9.2 mph14.8 kmh 29.47 in998.0 mb - 0.02 in0.5 mm 0.03 in0.8 mm
12:50 PM 55.7°F13.2°C 51.6°F10.9°C 86% 6.9 mph SE11.1 kmh SE 10.4 mph16.7 kmh 29.47 in998.0 mb - 0.02 in0.5 mm 0.03 in0.8 mm
12:55 PM 56.9°F13.8°C 52.8°F11.6°C 86% 5.8 mph SSE9.3 kmh SSE 6.9 mph11.1 kmh 29.47 in998.0 mb - 0.02 in0.5 mm 0.03 in0.8 mm
01:00 PM 57.6°F14.2°C 53.4°F11.9°C 86% 4.6 mph SE7.4 kmh SE 8.1 mph13.0 kmh 29.47 in998.0 mb - 0.02 in0.5 mm 0.03 in0.8 mm
01:10 PM 57.9°F14.4°C 53.8°F12.1°C 86% 6.9 mph SE11.1 kmh SE 9.2 mph14.8 kmh 29.47 in998.0 mb - 0.02 in0.5 mm 0.03 in0.8 mm
01:15 PM 58.3°F14.6°C 54.1°F12.3°C 86% 8.1 mph S13.0 kmh S 13.8 mph22.2 kmh 29.47 in998.0 mb - 0.02 in0.5 mm 0.03 in0.8 mm
01:20 PM 59.0°F15.0°C 54.8°F12.7°C 86% 5.8 mph SSE9.3 kmh SSE 12.7 mph20.4 kmh 29.47 in998.0 mb - 0.00 in0.0 mm 0.03 in0.8 mm
01:25 PM 59.5°F15.3°C 54.9°F12.7°C 85% 8.1 mph SE13.0 kmh SE 8.1 mph13.0 kmh 29.47 in998.0 mb - 0.00 in0.0 mm 0.03 in0.8 mm
01:30 PM 59.6°F15.3°C 54.7°F12.6°C 84% 8.1 mph SE13.0 kmh SE 15.0 mph24.1 kmh 29.47 in998.0 mb - 0.00 in0.0 mm 0.03 in0.8 mm
01:35 PM 60.0°F15.6°C 54.8°F12.7°C 83% 6.9 mph S11.1 kmh S 12.7 mph20.4 kmh 29.47 in998.0 mb - 0.00 in0.0 mm 0.03 in0.8 mm
01:40 PM 60.3°F15.7°C 54.7°F12.6°C 82% 8.1 mph S13.0 kmh S 15.0 mph24.1 kmh 29.47 in998.0 mb - 0.00 in0.0 mm 0.03 in0.8 mm
01:45 PM 60.6°F15.9°C 54.4°F12.4°C 80% 9.2 mph SE14.8 kmh SE 15.0 mph24.1 kmh 29.47 in998.0 mb - 0.00 in0.0 mm 0.03 in0.8 mm
01:50 PM 60.6°F15.9°C 53.4°F11.9°C 77% 9.2 mph SE14.8 kmh SE 13.8 mph22.2 kmh 29.47 in998.0 mb - 0.00 in0.0 mm 0.03 in0.8 mm
01:55 PM 60.8°F16.0°C 52.8°F11.6°C 75% 6.9 mph S11.1 kmh S 11.5 mph18.5 kmh 29.44 in997.0 mb - 0.00 in0.0 mm 0.03 in0.8 mm
02:00 PM 61.2°F16.2°C 52.8°F11.6°C 74% 10.4 mph SSE16.7 kmh SSE 12.7 mph20.4 kmh 29.44 in997.0 mb - 0.00 in0.0 mm 0.03 in0.8 mm
02:10 PM 60.9°F16.1°C 52.2°F11.2°C 73% 10.4 mph SSE16.7 kmh SSE 13.8 mph22.2 kmh 29.44 in997.0 mb - 0.00 in0.0 mm 0.03 in0.8 mm
02:15 PM 60.8°F16.0°C 52.1°F11.2°C 73% 8.1 mph SSE13.0 kmh SSE 11.5 mph18.5 kmh 29.44 in997.0 mb - 0.00 in0.0 mm 0.03 in0.8 mm
02:20 PM 60.3°F15.7°C 51.6°F10.9°C 73% 6.9 mph SE11.1 kmh SE 9.2 mph14.8 kmh 29.44 in997.0 mb - 0.00 in0.0 mm 0.03 in0.8 mm
02:25 PM 60.0°F15.6°C 51.3°F10.7°C 73% 9.2 mph SSE14.8 kmh SSE 13.8 mph22.2 kmh 29.47 in998.0 mb - 0.00 in0.0 mm 0.03 in0.8 mm
02:30 PM 59.2°F15.1°C 50.6°F10.3°C 73% 9.2 mph E14.8 kmh E 13.8 mph22.2 kmh 29.47 in998.0 mb - 0.00 in0.0 mm 0.03 in0.8 mm
02:35 PM 58.8°F14.9°C 50.5°F10.3°C 74% 6.9 mph SE11.1 kmh SE 8.1 mph13.0 kmh 29.47 in998.0 mb - 0.00 in0.0 mm 0.03 in0.8 mm
02:40 PM 58.4°F14.7°C 50.1°F10.1°C 74% 5.8 mph SSE9.3 kmh SSE 9.2 mph14.8 kmh 29.44 in997.0 mb - 0.00 in0.0 mm 0.03 in0.8 mm
02:45 PM 58.3°F14.6°C 50.0°F10.0°C 74% 5.8 mph SE9.3 kmh SE 9.2 mph14.8 kmh 29.44 in997.0 mb - 0.00 in0.0 mm 0.03 in0.8 mm
02:50 PM 58.1°F14.5°C 49.9°F9.9°C 74% 8.1 mph SSE13.0 kmh SSE 12.7 mph20.4 kmh 29.44 in997.0 mb - 0.00 in0.0 mm 0.03 in0.8 mm
02:55 PM 57.9°F14.4°C 50.0°F10.0°C 75% 6.9 mph SSE11.1 kmh SSE 9.2 mph14.8 kmh 29.44 in997.0 mb - 0.00 in0.0 mm 0.03 in0.8 mm
03:00 PM 57.7°F14.3°C 49.8°F9.9°C 75% 8.1 mph S13.0 kmh S 12.7 mph20.4 kmh 29.44 in997.0 mb - 0.00 in0.0 mm 0.03 in0.8 mm
03:10 PM 57.4°F14.1°C 49.9°F9.9°C 76% 8.1 mph SE13.0 kmh SE 10.4 mph16.7 kmh 29.44 in997.0 mb - 0.00 in0.0 mm 0.03 in0.8 mm
03:15 PM 57.2°F14.0°C 49.7°F9.8°C 76% 8.1 mph S13.0 kmh S 11.5 mph18.5 kmh 29.44 in997.0 mb - 0.00 in0.0 mm 0.03 in0.8 mm
03:20 PM 57.0°F13.9°C 49.9°F9.9°C 77% 8.1 mph SE13.0 kmh SE 11.5 mph18.5 kmh 29.44 in997.0 mb - 0.00 in0.0 mm 0.03 in0.8 mm
03:25 PM 56.8°F13.8°C 49.7°F9.8°C 77% 9.2 mph S14.8 kmh S 10.4 mph16.7 kmh 29.44 in997.0 mb - 0.00 in0.0 mm 0.03 in0.8 mm
03:30 PM 56.8°F13.8°C 49.7°F9.8°C 77% 9.2 mph S14.8 kmh S 11.5 mph18.5 kmh 29.44 in997.0 mb - 0.00 in0.0 mm 0.03 in0.8 mm
03:35 PM 56.8°F13.8°C 50.0°F10.0°C 78% 9.2 mph SE14.8 kmh SE 12.7 mph20.4 kmh 29.44 in997.0 mb - 0.00 in0.0 mm 0.03 in0.8 mm
03:40 PM 56.8°F13.8°C 50.1°F10.1°C 78% 9.2 mph SE14.8 kmh SE 11.5 mph18.5 kmh 29.44 in997.0 mb - 0.00 in0.0 mm 0.03 in0.8 mm
03:45 PM 57.2°F14.0°C 50.4°F10.2°C 78% 6.9 mph SE11.1 kmh SE 11.5 mph18.5 kmh 29.44 in997.0 mb - 0.00 in0.0 mm 0.03 in0.8 mm
03:50 PM 57.2°F14.0°C 50.1°F10.1°C 77% 6.9 mph SSE11.1 kmh SSE 9.2 mph14.8 kmh 29.44 in997.0 mb - 0.00 in0.0 mm 0.03 in0.8 mm
03:55 PM 57.0°F13.9°C 50.2°F10.1°C 78% 5.8 mph S9.3 kmh S 6.9 mph11.1 kmh 29.44 in997.0 mb - 0.00 in0.0 mm 0.03 in0.8 mm
04:00 PM 56.8°F13.8°C 49.7°F9.8°C 77% 8.1 mph SSE13.0 kmh SSE 11.5 mph18.5 kmh 29.44 in997.0 mb - 0.00 in0.0 mm 0.03 in0.8 mm
04:10 PM 56.7°F13.7°C 49.5°F9.7°C 77% 6.9 mph S11.1 kmh S 10.4 mph16.7 kmh 29.44 in997.0 mb - 0.00 in0.0 mm 0.03 in0.8 mm
04:15 PM 56.7°F13.7°C 49.5°F9.7°C 77% 5.8 mph SSE9.3 kmh SSE 9.2 mph14.8 kmh 29.44 in997.0 mb - 0.00 in0.0 mm 0.03 in0.8 mm
04:20 PM 56.7°F13.7°C 49.9°F9.9°C 78% 6.9 mph SSE11.1 kmh SSE 6.9 mph11.1 kmh 29.44 in997.0 mb - 0.00 in0.0 mm 0.03 in0.8 mm
04:25 PM 56.5°F13.6°C 49.7°F9.8°C 78% 5.8 mph SE9.3 kmh SE 9.2 mph14.8 kmh 29.44 in997.0 mb - 0.00 in0.0 mm 0.03 in0.8 mm
04:30 PM 56.3°F13.5°C 49.5°F9.7°C 78% 4.6 mph SSE7.4 kmh SSE 4.6 mph7.4 kmh 29.44 in997.0 mb - 0.00 in0.0 mm 0.03 in0.8 mm
04:35 PM 56.1°F13.4°C 49.0°F9.4°C 77% 4.6 mph SSE7.4 kmh SSE 6.9 mph11.1 kmh 29.44 in997.0 mb - 0.00 in0.0 mm 0.03 in0.8 mm
04:40 PM 55.9°F13.3°C 48.8°F9.3°C 77% 4.6 mph SE7.4 kmh SE 8.1 mph13.0 kmh 29.47 in998.0 mb - 0.00 in0.0 mm 0.03 in0.8 mm
04:45 PM 55.8°F13.2°C 48.7°F9.3°C 77% 4.6 mph S7.4 kmh S 6.9 mph11.1 kmh 29.47 in998.0 mb - 0.00 in0.0 mm 0.03 in0.8 mm
04:50 PM 55.6°F13.1°C 48.8°F9.3°C 78% 3.5 mph S5.6 kmh S 4.6 mph7.4 kmh 29.47 in998.0 mb - 0.00 in0.0 mm 0.03 in0.8 mm
04:55 PM 55.6°F13.1°C 48.8°F9.3°C 78% 4.6 mph S7.4 kmh S 5.8 mph9.3 kmh 29.47 in998.0 mb - 0.00 in0.0 mm 0.03 in0.8 mm
05:00 PM 55.6°F13.1°C 48.8°F9.3°C 78% 5.8 mph SSE9.3 kmh SSE 8.1 mph13.0 kmh 29.47 in998.0 mb - 0.00 in0.0 mm 0.03 in0.8 mm
05:10 PM 55.8°F13.2°C 49.3°F9.6°C 79% 6.9 mph S11.1 kmh S 9.2 mph14.8 kmh 29.47 in998.0 mb - 0.00 in0.0 mm 0.03 in0.8 mm
05:15 PM 55.9°F13.3°C 49.5°F9.7°C 79% 5.8 mph SSE9.3 kmh SSE 6.9 mph11.1 kmh 29.47 in998.0 mb - 0.00 in0.0 mm 0.03 in0.8 mm
05:20 PM 55.9°F13.3°C 49.9°F9.9°C 80% 6.9 mph S11.1 kmh S 11.5 mph18.5 kmh 29.47 in998.0 mb - 0.00 in0.0 mm 0.03 in0.8 mm
05:25 PM 56.1°F13.4°C 50.0°F10.0°C 80% 8.1 mph SSE13.0 kmh SSE 11.5 mph18.5 kmh 29.47 in998.0 mb - 0.00 in0.0 mm 0.03 in0.8 mm
05:30 PM 56.1°F13.4°C 50.0°F10.0°C 80% 6.9 mph SSE11.1 kmh SSE 9.2 mph14.8 kmh 29.47 in998.0 mb - 0.00 in0.0 mm 0.03 in0.8 mm
05:35 PM 56.3°F13.5°C 50.2°F10.1°C 80% 6.9 mph SSE11.1 kmh SSE 12.7 mph20.4 kmh 29.47 in998.0 mb - 0.00 in0.0 mm 0.03 in0.8 mm
05:40 PM 56.5°F13.6°C 50.0°F10.0°C 79% 6.9 mph S11.1 kmh S 8.1 mph13.0 kmh 29.50 in999.0 mb - 0.00 in0.0 mm 0.03 in0.8 mm
05:45 PM 56.5°F13.6°C 50.0°F10.0°C 79% 5.8 mph SSE9.3 kmh SSE 8.1 mph13.0 kmh 29.50 in999.0 mb - 0.00 in0.0 mm 0.03 in0.8 mm
05:50 PM 56.3°F13.5°C 49.9°F9.9°C 79% 5.8 mph SE9.3 kmh SE 6.9 mph11.1 kmh 29.50 in999.0 mb - 0.00 in0.0 mm 0.03 in0.8 mm
05:55 PM 56.3°F13.5°C 49.9°F9.9°C 79% 5.8 mph SSE9.3 kmh SSE 5.8 mph9.3 kmh 29.50 in999.0 mb - 0.00 in0.0 mm 0.03 in0.8 mm
06:00 PM 56.1°F13.4°C 49.7°F9.8°C 79% 5.8 mph SSE9.3 kmh SSE 6.9 mph11.1 kmh 29.50 in999.0 mb - 0.02 in0.5 mm 0.05 in1.3 mm
06:10 PM 55.8°F13.2°C 49.3°F9.6°C 79% 3.5 mph S5.6 kmh S 5.8 mph9.3 kmh 29.50 in999.0 mb - 0.02 in0.5 mm 0.05 in1.3 mm
06:15 PM 55.6°F13.1°C 49.2°F9.6°C 79% 3.5 mph S5.6 kmh S 4.6 mph7.4 kmh 29.50 in999.0 mb - 0.02 in0.5 mm 0.05 in1.3 mm
06:20 PM 55.4°F13.0°C 49.0°F9.4°C 79% 4.6 mph SW7.4 kmh SW 6.9 mph11.1 kmh 29.50 in999.0 mb - 0.02 in0.5 mm 0.05 in1.3 mm
06:25 PM 55.2°F12.9°C 49.2°F9.6°C 80% 3.5 mph S5.6 kmh S 4.6 mph7.4 kmh 29.50 in999.0 mb - 0.02 in0.5 mm 0.05 in1.3 mm
06:30 PM 55.0°F12.8°C 49.0°F9.4°C 80% 2.3 mph SSW3.7 kmh SSW 3.5 mph5.6 kmh 29.50 in999.0 mb - 0.02 in0.5 mm 0.05 in1.3 mm
06:35 PM 54.9°F12.7°C 48.8°F9.3°C 80% 3.5 mph S5.6 kmh S 4.6 mph7.4 kmh 29.50 in999.0 mb - 0.02 in0.5 mm 0.05 in1.3 mm
06:40 PM 54.9°F12.7°C 49.1°F9.5°C 81% 4.6 mph SSW7.4 kmh SSW 5.8 mph9.3 kmh 29.50 in999.0 mb - 0.02 in0.5 mm 0.05 in1.3 mm
06:45 PM 54.9°F12.7°C 49.1°F9.5°C 81% 3.5 mph SSW5.6 kmh SSW 4.6 mph7.4 kmh 29.50 in999.0 mb - 0.14 in3.6 mm 0.17 in4.3 mm
06:50 PM 54.9°F12.7°C 49.5°F9.7°C 82% 2.3 mph SW3.7 kmh SW 3.5 mph5.6 kmh 29.50 in999.0 mb - 0.14 in3.6 mm 0.17 in4.3 mm
06:55 PM 55.2°F12.9°C 49.8°F9.9°C 82% 5.8 mph S9.3 kmh S 6.9 mph11.1 kmh 29.47 in998.0 mb - 0.14 in3.6 mm 0.17 in4.3 mm
07:00 PM 55.2°F12.9°C 49.8°F9.9°C 82% 2.3 mph SW3.7 kmh SW 4.6 mph7.4 kmh 29.47 in998.0 mb - 0.12 in3.0 mm 0.17 in4.3 mm
07:10 PM 55.2°F12.9°C 50.1°F10.1°C 83% 2.3 mph S3.7 kmh S 2.3 mph3.7 kmh 29.50 in999.0 mb - 0.16 in4.1 mm 0.21 in5.3 mm
07:15 PM 55.2°F12.9°C 50.1°F10.1°C 83% 2.3 mph SSW3.7 kmh SSW 2.3 mph3.7 kmh 29.50 in999.0 mb - 0.16 in4.1 mm 0.21 in5.3 mm
07:20 PM 55.2°F12.9°C 50.1°F10.1°C 83% 2.3 mph SSW3.7 kmh SSW 2.3 mph3.7 kmh 29.50 in999.0 mb - 0.16 in4.1 mm 0.21 in5.3 mm
07:25 PM 55.2°F12.9°C 50.1°F10.1°C 83% 2.3 mph S3.7 kmh S 2.3 mph3.7 kmh 29.50 in999.0 mb - 0.16 in4.1 mm 0.21 in5.3 mm
07:30 PM 55.0°F12.8°C 50.0°F10.0°C 83% 2.3 mph SSW3.7 kmh SSW 2.3 mph3.7 kmh 29.50 in999.0 mb - 0.16 in4.1 mm 0.21 in5.3 mm
07:35 PM 55.0°F12.8°C 50.0°F10.0°C 83% 2.3 mph SW3.7 kmh SW 2.3 mph3.7 kmh 29.50 in999.0 mb - 0.16 in4.1 mm 0.21 in5.3 mm
07:40 PM 54.9°F12.7°C 49.8°F9.9°C 83% 3.5 mph SSW5.6 kmh SSW 3.5 mph5.6 kmh 29.50 in999.0 mb - 0.16 in4.1 mm 0.21 in5.3 mm
07:45 PM 54.9°F12.7°C 49.8°F9.9°C 83% 2.3 mph SSW3.7 kmh SSW 3.5 mph5.6 kmh 29.50 in999.0 mb - 0.04 in1.0 mm 0.21 in5.3 mm
07:50 PM 54.9°F12.7°C 49.8°F9.9°C 83% 3.5 mph SSW5.6 kmh SSW 4.6 mph7.4 kmh 29.50 in999.0 mb - 0.04 in1.0 mm 0.21 in5.3 mm
07:55 PM 54.7°F12.6°C 49.6°F9.8°C 83% 2.3 mph WSW3.7 kmh WSW 3.5 mph5.6 kmh 29.47 in998.0 mb - 0.04 in1.0 mm 0.21 in5.3 mm
08:00 PM 54.7°F12.6°C 49.6°F9.8°C 83% 2.3 mph SW3.7 kmh SW 3.5 mph5.6 kmh 29.47 in998.0 mb - 0.04 in1.0 mm 0.21 in5.3 mm
08:10 PM 54.7°F12.6°C 49.6°F9.8°C 83% 6.9 mph W11.1 kmh W 9.2 mph14.8 kmh 29.50 in999.0 mb - 0.00 in0.0 mm 0.21 in5.3 mm
08:15 PM 54.5°F12.5°C 49.4°F9.7°C 83% 6.9 mph WSW11.1 kmh WSW 9.2 mph14.8 kmh 29.50 in999.0 mb - 0.00 in0.0 mm 0.21 in5.3 mm
08:20 PM 54.3°F12.4°C 49.3°F9.6°C 83% 5.8 mph W9.3 kmh W 9.2 mph14.8 kmh 29.50 in999.0 mb - 0.00 in0.0 mm 0.21 in5.3 mm
08:25 PM 54.1°F12.3°C 49.1°F9.5°C 83% 5.8 mph W9.3 kmh W 6.9 mph11.1 kmh 29.50 in999.0 mb - 0.00 in0.0 mm 0.21 in5.3 mm
08:30 PM 54.0°F12.2°C 48.9°F9.4°C 83% 5.8 mph W9.3 kmh W 8.1 mph13.0 kmh 29.50 in999.0 mb - 0.00 in0.0 mm 0.21 in5.3 mm
08:35 PM 54.0°F12.2°C 48.9°F9.4°C 83% 4.6 mph WSW7.4 kmh WSW 5.8 mph9.3 kmh 29.50 in999.0 mb - 0.00 in0.0 mm 0.21 in5.3 mm
08:40 PM 53.8°F12.1°C 48.7°F9.3°C 83% 4.6 mph WSW7.4 kmh WSW 5.8 mph9.3 kmh 29.50 in999.0 mb - 0.00 in0.0 mm 0.21 in5.3 mm
08:45 PM 53.6°F12.0°C 48.6°F9.2°C 83% 3.5 mph WSW5.6 kmh WSW 4.6 mph7.4 kmh 29.50 in999.0 mb - 0.00 in0.0 mm 0.21 in5.3 mm
08:50 PM 53.6°F12.0°C 48.6°F9.2°C 83% 1.2 mph SW1.9 kmh SW 2.3 mph3.7 kmh 29.50 in999.0 mb - 0.00 in0.0 mm 0.21 in5.3 mm
08:55 PM 53.4°F11.9°C 48.4°F9.1°C 83% 2.3 mph SSW3.7 kmh SSW 3.5 mph5.6 kmh 29.53 in1000.0 mb - 0.00 in0.0 mm 0.21 in5.3 mm
09:00 PM 53.3°F11.8°C 48.3°F9.1°C 83% 2.3 mph SSW3.7 kmh SSW 3.5 mph5.6 kmh 29.53 in1000.0 mb - 0.00 in0.0 mm 0.21 in5.3 mm
09:10 PM 53.1°F11.7°C 48.0°F8.9°C 83% 4.6 mph S7.4 kmh S 5.8 mph9.3 kmh 29.53 in1000.0 mb - 0.00 in0.0 mm 0.21 in5.3 mm
09:15 PM 52.9°F11.6°C 47.9°F8.8°C 83% 2.3 mph SW3.7 kmh SW 4.6 mph7.4 kmh 29.53 in1000.0 mb - 0.00 in0.0 mm 0.21 in5.3 mm
09:20 PM 52.8°F11.6°C 47.8°F8.8°C 83% 3.5 mph SW5.6 kmh SW 4.6 mph7.4 kmh 29.53 in1000.0 mb - 0.00 in0.0 mm 0.21 in5.3 mm
09:25 PM 52.7°F11.5°C 47.7°F8.7°C 83% 4.6 mph SSW7.4 kmh SSW 5.8 mph9.3 kmh 29.56 in1001.0 mb - 0.02 in0.5 mm 0.23 in5.8 mm
09:30 PM 52.5°F11.4°C 47.5°F8.6°C 83% 4.6 mph SW7.4 kmh SW 5.8 mph9.3 kmh 29.56 in1001.0 mb - 0.02 in0.5 mm 0.23 in5.8 mm
09:35 PM 52.5°F11.4°C 47.5°F8.6°C 83% 6.9 mph W11.1 kmh W 8.1 mph13.0 kmh 29.56 in1001.0 mb - 0.02 in0.5 mm 0.23 in5.8 mm
09:40 PM 52.5°F11.4°C 47.5°F8.6°C 83% 3.5 mph SW5.6 kmh SW 5.8 mph9.3 kmh 29.56 in1001.0 mb - 0.02 in0.5 mm 0.23 in5.8 mm
09:45 PM 52.3°F11.3°C 47.3°F8.5°C 83% 3.5 mph WSW5.6 kmh WSW 4.6 mph7.4 kmh 29.56 in1001.0 mb - 0.02 in0.5 mm 0.23 in5.8 mm
09:50 PM 52.3°F11.3°C 47.3°F8.5°C 83% 2.3 mph S3.7 kmh S 2.3 mph3.7 kmh 29.56 in1001.0 mb - 0.02 in0.5 mm 0.23 in5.8 mm
09:55 PM 52.0°F11.1°C 47.0°F8.3°C 83% 2.3 mph SSE3.7 kmh SSE 2.3 mph3.7 kmh 29.56 in1001.0 mb - 0.02 in0.5 mm 0.23 in5.8 mm
10:00 PM 51.6°F10.9°C 46.6°F8.1°C 83% 1.2 mph S1.9 kmh S 1.2 mph1.9 kmh 29.56 in1001.0 mb - 0.02 in0.5 mm 0.23 in5.8 mm
10:10 PM 50.6°F10.3°C 45.3°F7.4°C 82% Calm Calm -- 29.56 in1001.0 mb - 0.02 in0.5 mm 0.23 in5.8 mm
10:15 PM 50.2°F10.1°C 44.9°F7.2°C 82% Calm Calm 1.2 mph1.9 kmh 29.56 in1001.0 mb - 0.02 in0.5 mm 0.23 in5.8 mm
10:20 PM 49.8°F9.9°C 44.5°F6.9°C 82% 1.2 mph SSW1.9 kmh SSW 2.3 mph3.7 kmh 29.56 in1001.0 mb - 0.02 in0.5 mm 0.23 in5.8 mm
10:25 PM 49.8°F9.9°C 44.5°F6.9°C 82% 1.2 mph W1.9 kmh W 2.3 mph3.7 kmh 29.56 in1001.0 mb - 0.00 in0.0 mm 0.23 in5.8 mm
10:30 PM 49.6°F9.8°C 44.7°F7.1°C 83% 2.3 mph W3.7 kmh W 2.3 mph3.7 kmh 29.56 in1001.0 mb - 0.00 in0.0 mm 0.23 in5.8 mm
10:35 PM 49.6°F9.8°C 44.7°F7.1°C 83% 3.5 mph WSW5.6 kmh WSW 3.5 mph5.6 kmh 29.56 in1001.0 mb - 0.00 in0.0 mm 0.23 in5.8 mm
10:40 PM 49.6°F9.8°C 44.7°F7.1°C 83% 2.3 mph SW3.7 kmh SW 2.3 mph3.7 kmh 29.56 in1001.0 mb - 0.00 in0.0 mm 0.23 in5.8 mm
10:45 PM 49.4°F9.7°C 44.4°F6.9°C 83% 1.2 mph SW1.9 kmh SW 2.3 mph3.7 kmh 29.56 in1001.0 mb - 0.00 in0.0 mm 0.23 in5.8 mm
10:50 PM 49.1°F9.5°C 44.1°F6.7°C 83% Calm Calm -- 29.56 in1001.0 mb - 0.00 in0.0 mm 0.23 in5.8 mm
10:55 PM 48.6°F9.2°C 43.3°F6.3°C 82% Calm Calm 1.2 mph1.9 kmh 29.56 in1001.0 mb - 0.00 in0.0 mm 0.23 in5.8 mm
11:00 PM 48.3°F9.1°C 43.1°F6.2°C 82% 1.2 mph SSW1.9 kmh SSW 1.2 mph1.9 kmh 29.56 in1001.0 mb - 0.00 in0.0 mm 2.64 in67.1 mm
11:10 PM 48.3°F9.1°C 43.4°F6.3°C 83% 2.3 mph SW3.7 kmh SW 3.5 mph5.6 kmh 29.56 in1001.0 mb - 0.00 in0.0 mm 2.64 in67.1 mm
11:15 PM 48.6°F9.2°C 43.6°F6.4°C 83% 2.3 mph SW3.7 kmh SW 2.3 mph3.7 kmh 29.56 in1001.0 mb - 0.00 in0.0 mm 2.64 in67.1 mm
11:20 PM 48.7°F9.3°C 43.8°F6.6°C 83% 2.3 mph SW3.7 kmh SW 3.5 mph5.6 kmh 29.56 in1001.0 mb - 0.00 in0.0 mm 2.64 in67.1 mm
11:25 PM 48.6°F9.2°C 43.6°F6.4°C 83% 1.2 mph SW1.9 kmh SW 1.2 mph1.9 kmh 29.53 in1000.0 mb - 0.00 in0.0 mm 2.64 in67.1 mm
11:30 PM 48.3°F9.1°C 43.4°F6.3°C 83% 2.3 mph N3.7 kmh N 2.3 mph3.7 kmh 29.53 in1000.0 mb - 0.00 in0.0 mm 2.64 in67.1 mm
11:35 PM 48.0°F8.9°C 43.1°F6.2°C 83% 2.3 mph N3.7 kmh N 2.3 mph3.7 kmh 29.53 in1000.0 mb - 0.00 in0.0 mm 2.64 in67.1 mm
11:40 PM 47.7°F8.7°C 42.8°F6.0°C 83% 1.2 mph SE1.9 kmh SE 2.3 mph3.7 kmh 29.56 in1001.0 mb - 0.00 in0.0 mm 2.64 in67.1 mm
11:45 PM 47.4°F8.6°C 42.5°F5.8°C 83% 1.2 mph SW1.9 kmh SW 2.3 mph3.7 kmh 29.56 in1001.0 mb - 0.00 in0.0 mm 2.64 in67.1 mm
11:50 PM 47.3°F8.5°C 42.4°F5.8°C 83% Calm Calm -- 29.56 in1001.0 mb - 0.00 in0.0 mm 2.64 in67.1 mm
11:55 PM 46.8°F8.2°C 41.9°F5.5°C 83% 1.2 mph SW1.9 kmh SW 1.2 mph1.9 kmh 29.53 in1000.0 mb - 0.00 in0.0 mm 2.64 in67.1 mm